Blue Ridge, New York
Current Conditions -  °F | °C
As of 10:15 AM on Friday 19 Dec 2014 (Local Time) from K6B0 Reporting Station
Overcast Overcast  
Wind Chill: 20°   Ceiling: 2400
Heat Index: 27°   Visibility: 10mi
Dew Point: 20°   Wind: 7mph
Humidity: 73%   Direction: 350°N
Pressure: 30.03"   Gusts: NA
Location:  43.8504°N, 73.7678°W
Report Text: K6B0 191515Z AUTO 35006KT 10SM OVC024 M03/M07 A3003 RMK AO2 T10261068
Loading
Personal Weather Stations






























Interactive Weather Map New forecast layout! Learn more

10-Day Weather Forecast

Advertisements
Track Severe Weather on mobile